Terminal Aerodrome Forecast
Issued by NWS Knoxville/Tri Cities, TN

Current Version | Previous Version | Text Only | Print | Product List | Glossary On
Versions: 1 2 3 4 5 6 7 8 9 10 11 12 13 14
000
FTUS44 KMRX 262121 AAA
TAFTRI
TAF AMD
KTRI 262121Z 2621/2718 20014G22KT P6SM VCSH SCT050 BKN070
     FM270100 VRB02KT P6SM SCT080
     FM270900 00000KT 3SM BR SCT002 BKN035
     FM271330 18005KT P6SM BKN040=

USA.gov is the U.S. government's official web portal to all federal, state and local government web resources and services.